Time,TemperatureF,DewpointF,PressureIn,WindDirection,WindDirectionDegrees,WindSpeedMPH,WindSpeedGustMPH,Humidity,HourlyPrecipIn,Conditions,Clouds,dailyrainin,SoftwareType,DateUTC
2013-02-09 20:38:00,49.4,33.5,30.07,NW,309,0.0,0.0,54,0.00,,,0.00,WeatherTracker,2013-02-10 04:38:00,
2013-02-09 20:39:00,49.4,33.5,30.07,NW,309,0.0,0.0,54,0.00,,,0.00,WeatherTracker,2013-02-10 04:39:00,
2013-02-09 20:40:00,49.3,33.4,30.07,WNW,301,1.0,0.0,54,0.00,,,0.00,WeatherTracker,2013-02-10 04:40:00,
2013-02-09 20:45:00,49.3,32.9,30.07,WNW,293,0.0,0.0,53,0.00,,,0.00,WeatherTracker,2013-02-10 04:45:00,
2013-02-09 20:50:00,49.3,32.4,30.07,WSW,248,0.0,0.0,52,0.00,,,0.00,WeatherTracker,2013-02-10 04:50:00,
2013-02-09 20:55:00,49.2,31.9,30.07,WSW,249,0.0,0.0,51,0.00,,,0.00,WeatherTracker,2013-02-10 04:55:00,
2013-02-09 21:00:00,49.1,31.8,30.07,WSW,249,0.0,0.0,51,0.00,,,0.00,WeatherTracker,2013-02-10 05:00:00,
2013-02-09 21:05:00,48.9,31.6,30.07,WSW,249,0.0,0.0,51,0.00,,,0.00,WeatherTracker,2013-02-10 05:05:00,
2013-02-09 21:10:00,48.7,31.4,30.07,WSW,249,0.0,0.0,51,0.00,,,0.00,WeatherTracker,2013-02-10 05:10:00,
2013-02-09 21:15:00,48.3,30.0,30.07,WSW,249,0.0,0.0,49,0.00,,,0.00,WeatherTracker,2013-02-10 05:15:00,
2013-02-09 21:20:00,48.2,30.4,30.07,WSW,252,0.0,0.0,50,0.00,,,0.00,WeatherTracker,2013-02-10 05:20:00,
2013-02-09 21:25:00,48.6,29.3,30.07,WSW,245,0.0,0.0,47,0.00,,,0.00,WeatherTracker,2013-02-10 05:25:00,
2013-02-09 21:30:00,48.6,28.2,30.07,West,271,1.0,0.0,45,0.00,,,0.00,WeatherTracker,2013-02-10 05:30:00,
2013-02-09 21:35:00,48.8,31.0,30.07,NW,313,0.0,0.0,50,0.00,,,0.00,WeatherTracker,2013-02-10 05:35:00,
2013-02-09 21:40:00,48.7,30.4,30.07,NNW,344,0.0,0.0,49,0.00,,,0.00,WeatherTracker,2013-02-10 05:40:00,
2013-02-09 21:45:00,48.5,29.7,30.07,North,11,0.0,0.0,48,0.00,,,0.00,WeatherTracker,2013-02-10 05:45:00,
2013-02-09 21:50:00,48.9,29.0,30.07,ENE,60,1.0,0.0,46,0.00,,,0.00,WeatherTracker,2013-02-10 05:50:00,
2013-02-09 21:55:00,49.1,28.1,30.07,ENE,68,0.0,0.0,44,0.00,,,0.00,WeatherTracker,2013-02-10 05:55:00,
2013-02-09 22:01:00,49.1,28.7,30.07,ENE,68,0.0,0.0,45,0.00,,,0.00,WeatherTracker,2013-02-10 06:01:00,
2013-02-09 22:05:00,49.2,30.4,30.07,East,93,2.0,0.0,48,0.00,,,0.00,WeatherTracker,2013-02-10 06:05:00,
2013-02-09 22:11:00,49.4,32.0,30.07,East,86,2.0,0.0,51,0.00,,,0.00,WeatherTracker,2013-02-10 06:11:00,
2013-02-09 22:16:00,49.2,32.8,30.07,East,93,1.0,0.0,53,0.00,,,0.00,WeatherTracker,2013-02-10 06:16:00,
2013-02-09 22:21:00,48.7,33.3,30.07,SE,131,0.0,0.0,55,0.00,,,0.00,WeatherTracker,2013-02-10 06:21:00,
2013-02-09 22:26:00,48.3,32.9,30.07,SSE,167,0.0,0.0,55,0.00,,,0.00,WeatherTracker,2013-02-10 06:26:00,
2013-02-09 22:31:00,47.9,33.0,30.07,SSW,195,0.0,0.0,56,0.00,,,0.00,WeatherTracker,2013-02-10 06:31:00,
2013-02-09 22:36:00,47.6,33.6,30.07,SSW,204,0.0,0.0,58,0.00,,,0.00,WeatherTracker,2013-02-10 06:36:00,
2013-02-09 22:41:00,47.2,34.0,30.07,SW,222,0.0,0.0,60,0.00,,,0.00,WeatherTracker,2013-02-10 06:41:00,
2013-02-09 22:46:00,47.1,32.2,30.07,SW,222,0.0,0.0,56,0.00,,,0.00,WeatherTracker,2013-02-10 06:46:00,
2013-02-09 22:51:00,47.0,32.6,30.07,SW,223,0.0,0.0,57,0.00,,,0.00,WeatherTracker,2013-02-10 06:51:00,
2013-02-09 22:56:00,46.7,32.3,30.07,SW,222,0.0,0.0,57,0.00,,,0.00,WeatherTracker,2013-02-10 06:56:00,
2013-02-09 23:01:00,46.6,32.2,30.07,SW,223,0.0,0.0,57,0.00,,,0.00,WeatherTracker,2013-02-10 07:01:00,
2013-02-09 23:06:00,46.5,32.1,30.07,SW,224,0.0,0.0,57,0.00,,,0.00,WeatherTracker,2013-02-10 07:06:00,
2013-02-09 23:11:00,46.5,31.7,30.07,SW,223,0.0,0.0,56,0.00,,,0.00,WeatherTracker,2013-02-10 07:11:00,
2013-02-09 23:16:00,46.5,31.7,30.07,SW,224,0.0,0.0,56,0.00,,,0.00,WeatherTracker,2013-02-10 07:16:00,
2013-02-09 23:21:00,46.4,31.6,30.07,SW,223,0.0,0.0,56,0.00,,,0.00,WeatherTracker,2013-02-10 07:21:00,
2013-02-09 23:26:00,46.4,31.6,30.07,WSW,245,0.0,0.0,56,0.00,,,0.00,WeatherTracker,2013-02-10 07:26:00,
2013-02-09 23:31:00,46.3,31.5,30.07,WSW,243,0.0,0.0,56,0.00,,,0.00,WeatherTracker,2013-02-10 07:31:00,
2013-02-09 23:36:00,46.2,31.8,30.07,SW,216,0.0,0.0,57,0.00,,,0.00,WeatherTracker,2013-02-10 07:36:00,
2013-02-09 23:41:00,46.1,31.7,30.07,SW,215,0.0,0.0,57,0.00,,,0.00,WeatherTracker,2013-02-10 07:41:00,
2013-02-09 23:46:00,46.1,31.7,30.07,SW,216,0.0,0.0,57,0.00,,,0.00,WeatherTracker,2013-02-10 07:46:00,
2013-02-09 23:51:00,45.9,31.5,30.07,SW,215,0.0,0.0,57,0.00,,,0.00,WeatherTracker,2013-02-10 07:51:00,
2013-02-09 23:56:00,45.8,31.9,30.07,SW,216,0.0,0.0,58,0.00,,,0.00,WeatherTracker,2013-02-10 07:56:00,